Station History


Daily Summary for February 14, 2012 Units:  English    Metric   Both
« Previous Day
Next Day »
Daily Weekly Monthly Yearly Custom
  High: Low: Average:
Temperature: 55.1 °F 39.0 °F 46.3 °F
Dew Point: 46.7 °F 37.1 °F 42.5 °F
Humidity: 97% 66% 87%
Wind Speed: 5.8mph 0.0mph 2.1mph
Wind Gust: 5.8mph - -
Wind- - SSW
Pressure: 30.11 in 29.95 in -
Precipitation: 0.01 in    
Historical Graphs
 
 
Tabular Data for February 14, 2012
Time Temperature Dew Point Pressure Wind Wind Speed Wind Gust Humidity Rainfall Rate (Hourly)
00:01 44.2 °F 42.6 °F 29.95 in Calm     94% 0.00 in
00:06 44.2 °F 42.9 °F 29.95 in Calm     95% 0.00 in
00:11 44.1 °F 42.8 °F 29.95 in Calm     95% 0.00 in
00:17 44.1 °F 42.8 °F 29.95 in Calm     95% 0.00 in
00:22 44.1 °F 42.8 °F 29.96 in Calm     95% 0.00 in
00:27 44.3 °F 43.0 °F 29.95 in Calm     95% 0.00 in
00:32 44.4 °F 43.1 °F 29.96 in Calm     95% 0.00 in
00:37 44.4 °F 43.1 °F 29.96 in West 1.1 mph   95% 0.00 in
00:42 44.4 °F 43.1 °F 29.96 in Calm     95% 0.00 in
00:47 44.4 °F 43.1 °F 29.96 in Calm     95% 0.00 in
00:52 44.4 °F 43.1 °F 29.97 in Calm     95% 0.00 in
00:57 44.5 °F 43.2 °F 29.97 in Calm   0.1 mph 95% 0.00 in
01:02 44.5 °F 43.2 °F 29.97 in NE 1.1 mph   95% 0.00 in
01:07 44.5 °F 43.2 °F 29.97 in WSW 1.1 mph 1.1 mph 95% 0.00 in
01:12 44.5 °F 43.2 °F 29.98 in Calm   0.1 mph 95% 0.00 in
01:17 44.5 °F 43.2 °F 29.97 in NNW 2.3 mph 2.3 mph 95% 0.00 in
01:22 44.6 °F 43.3 °F 29.98 in NW 2.3 mph 2.3 mph 95% 0.00 in
01:27 44.6 °F 43.3 °F 29.98 in WSW 2.3 mph 2.3 mph 95% 0.00 in
01:32 44.5 °F 43.2 °F 29.98 in Calm     95% 0.00 in
01:37 44.5 °F 43.2 °F 29.98 in NNE 1.1 mph   95% 0.00 in
01:42 44.5 °F 43.2 °F 29.98 in NNW 1.1 mph 1.1 mph 95% 0.00 in
01:47 44.5 °F 43.2 °F 29.99 in Calm     95% 0.00 in
01:52 44.5 °F 43.2 °F 29.99 in Calm     95% 0.00 in
01:57 44.5 °F 43.2 °F 29.99 in NNW 1.0 mph 1.0 mph 95% 0.00 in
02:02 44.5 °F 43.2 °F 29.99 in NNW 1.1 mph 1.1 mph 95% 0.00 in
02:07 44.5 °F 43.2 °F 29.99 in Calm     95% 0.00 in
02:12 44.5 °F 43.2 °F 29.99 in Calm     95% 0.00 in
02:17 44.5 °F 43.2 °F 29.99 in Calm     95% 0.00 in
02:22 44.5 °F 43.2 °F 29.99 in NNW 1.1 mph 1.1 mph 95% 0.00 in
02:27 44.5 °F 43.2 °F 29.99 in NW 2.3 mph 2.3 mph 95% 0.00 in
02:32 44.6 °F 43.3 °F 29.98 in Calm     95% 0.00 in
02:37 44.6 °F 43.3 °F 29.98 in North 1.1 mph   95% 0.00 in
02:42 44.5 °F 43.2 °F 29.98 in North 1.1 mph 1.1 mph 95% 0.00 in
02:47 44.4 °F 43.1 °F 29.98 in WNW 1.1 mph   95% 0.01 in
02:52 44.4 °F 43.1 °F 29.98 in NNW 1.1 mph 1.1 mph 95% 0.01 in
02:57 44.4 °F 43.1 °F 29.98 in North 1.0 mph 1.0 mph 95% 0.01 in
03:02 44.3 °F 43.0 °F 29.98 in Calm     95% 0.01 in
03:07 44.2 °F 42.9 °F 29.98 in North 1.1 mph 1.1 mph 95% 0.01 in
03:12 44.3 °F 43.0 °F 29.98 in NNW 1.1 mph 1.1 mph 95% 0.01 in
03:17 44.2 °F 42.9 °F 29.98 in North 1.1 mph   95% 0.01 in
03:22 44.1 °F 42.8 °F 29.98 in Calm     95% 0.01 in
03:27 44.0 °F 42.7 °F 29.98 in NNW 1.1 mph   95% 0.01 in
03:32 44.0 °F 42.7 °F 29.98 in North 1.1 mph   95% 0.01 in
03:37 43.9 °F 42.6 °F 29.98 in Calm     95% 0.01 in
03:42 43.8 °F 42.5 °F 29.98 in Calm     95% 0.01 in
03:47 43.7 °F 42.4 °F 29.98 in Calm     95% 0.00 in
03:52 43.6 °F 42.3 °F 29.98 in Calm     95% 0.00 in
03:57 43.5 °F 42.2 °F 29.99 in Calm     95% 0.00 in
04:02 43.5 °F 42.2 °F 29.99 in Calm     95% 0.00 in
04:07 43.4 °F 42.1 °F 29.99 in Calm     95% 0.00 in
04:12 43.4 °F 42.3 °F 29.99 in WNW 1.1 mph 1.1 mph 96% 0.00 in
04:17 43.4 °F 42.3 °F 29.99 in Calm     96% 0.00 in
04:22 43.5 °F 42.4 °F 29.99 in Calm     96% 0.00 in
04:27 43.5 °F 42.4 °F 30.00 in Calm     96% 0.00 in
04:32 43.3 °F 42.0 °F 30.00 in Calm     95% 0.00 in
04:37 43.2 °F 41.9 °F 30.00 in Calm   0.1 mph 95% 0.00 in
04:42 43.1 °F 41.8 °F 30.00 in Calm     95% 0.00 in
04:47 43.1 °F 42.0 °F 30.00 in Calm     96% 0.00 in
04:52 43.1 °F 42.0 °F 30.01 in NNW 1.1 mph   96% 0.00 in
04:57 43.1 °F 42.0 °F 30.00 in Calm     96% 0.00 in
05:02 43.0 °F 41.9 °F 30.01 in Calm     96% 0.00 in
05:07 43.0 °F 41.9 °F 30.00 in Calm     96% 0.00 in
05:12 43.0 °F 41.9 °F 30.00 in Calm     96% 0.00 in
05:17 43.1 °F 42.0 °F 30.00 in Calm     96% 0.00 in
05:22 43.1 °F 42.0 °F 30.01 in Calm     96% 0.00 in
05:27 43.1 °F 42.0 °F 30.01 in Calm     96% 0.00 in
05:32 43.1 °F 42.0 °F 30.01 in Calm     96% 0.00 in
05:37 43.1 °F 42.0 °F 30.01 in Calm     96% 0.00 in
05:42 43.2 °F 42.1 °F 30.01 in Calm     96% 0.00 in
05:47 43.2 °F 42.1 °F 30.01 in Calm     96% 0.00 in
05:52 43.2 °F 42.1 °F 30.01 in Calm     96% 0.00 in
05:57 43.2 °F 42.1 °F 30.01 in Calm     96% 0.00 in
06:02 43.2 °F 42.1 °F 30.01 in Calm     96% 0.00 in
06:07 43.2 °F 42.1 °F 30.02 in Calm     96% 0.00 in
06:12 43.3 °F 42.2 °F 30.02 in Calm     96% 0.00 in
06:17 43.4 °F 42.3 °F 30.02 in Calm     96% 0.00 in
06:22 43.4 °F 42.3 °F 30.02 in Calm     96% 0.00 in
06:27 43.5 °F 42.4 °F 30.02 in Calm     96% 0.00 in
06:32 43.5 °F 42.4 °F 30.03 in Calm     96% 0.00 in
06:37 43.5 °F 42.4 °F 30.03 in Calm     96% 0.00 in
06:43 43.5 °F 42.4 °F 30.03 in Calm     96% 0.00 in
06:48 43.5 °F 42.4 °F 30.04 in Calm     96% 0.00 in
06:53 43.5 °F 42.4 °F 30.04 in Calm     96% 0.00 in
06:58 43.5 °F 42.4 °F 30.04 in Calm     96% 0.00 in
07:03 43.6 °F 42.5 °F 30.04 in Calm     96% 0.00 in
07:08 43.6 °F 42.5 °F 30.05 in Calm     96% 0.00 in
07:13 43.7 °F 42.6 °F 30.05 in Calm     96% 0.00 in
07:18 43.8 °F 42.7 °F 30.05 in Calm     96% 0.00 in
07:23 43.8 °F 42.7 °F 30.06 in Calm     96% 0.00 in
07:28 43.9 °F 42.8 °F 30.06 in Calm     96% 0.00 in
07:33 44.0 °F 42.9 °F 30.06 in Calm     96% 0.00 in
07:38 44.0 °F 42.9 °F 30.06 in Calm     96% 0.00 in
07:43 44.1 °F 43.0 °F 30.06 in Calm     96% 0.00 in
07:48 44.2 °F 43.1 °F 30.07 in Calm     96% 0.00 in
07:53 44.3 °F 43.2 °F 30.07 in Calm     96% 0.00 in
07:58 44.5 °F 43.7 °F 30.07 in Calm     97% 0.00 in
08:03 44.6 °F 43.8 °F 30.07 in Calm     97% 0.00 in
08:08 44.7 °F 43.6 °F 30.07 in Calm     96% 0.00 in
08:13 44.8 °F 43.7 °F 30.08 in Calm     96% 0.00 in
08:18 44.9 °F 43.8 °F 30.08 in Calm     96% 0.00 in
08:23 44.8 °F 43.7 °F 30.08 in West 1.1 mph 1.1 mph 96% 0.00 in
08:28 44.7 °F 43.6 °F 30.09 in Calm     96% 0.00 in
08:33 44.7 °F 43.6 °F 30.09 in Calm     96% 0.00 in
08:38 44.7 °F 43.6 °F 30.09 in Calm     96% 0.00 in
08:43 44.9 °F 43.8 °F 30.09 in Calm     96% 0.00 in
08:48 45.0 °F 43.9 °F 30.08 in Calm     96% 0.00 in
08:53 45.1 °F 44.0 °F 30.08 in Calm     96% 0.00 in
08:58 45.2 °F 44.1 °F 30.09 in Calm     96% 0.00 in
09:03 45.3 °F 44.2 °F 30.09 in Calm     96% 0.00 in
09:08 45.4 °F 44.3 °F 30.09 in Calm     96% 0.00 in
09:13 45.6 °F 44.5 °F 30.09 in Calm     96% 0.00 in
09:18 45.6 °F 44.3 °F 30.09 in Calm     95% 0.00 in
09:23 45.7 °F 44.4 °F 30.09 in Calm     95% 0.00 in
09:28 45.8 °F 44.4 °F 30.09 in Calm     95% 0.00 in
09:33 45.8 °F 44.4 °F 30.09 in SW 1.1 mph 1.1 mph 95% 0.00 in
09:39 45.9 °F 44.5 °F 30.09 in Calm     95% 0.00 in
09:44 46.1 °F 44.5 °F 30.09 in Calm     94% 0.00 in
09:49 46.2 °F 44.6 °F 30.10 in SW 1.1 mph 1.1 mph 94% 0.00 in
09:54 46.3 °F 44.7 °F 30.10 in SSW 1.1 mph 1.1 mph 94% 0.00 in
09:59 46.3 °F 44.7 °F 30.10 in Calm     94% 0.00 in
10:04 46.7 °F 45.1 °F 30.10 in Calm     94% 0.00 in
10:09 46.9 °F 45.0 °F 30.10 in Calm     93% 0.00 in
10:14 47.0 °F 45.1 °F 30.10 in SW 1.1 mph 1.1 mph 93% 0.00 in
10:19 47.2 °F 45.0 °F 30.09 in Calm     92% 0.00 in
10:24 47.3 °F 44.8 °F 30.10 in SW 1.1 mph   91% 0.00 in
10:29 47.7 °F 45.5 °F 30.09 in Calm     92% 0.00 in
10:34 48.1 °F 45.9 °F 30.09 in Calm     92% 0.00 in
10:39 48.4 °F 45.6 °F 30.09 in Calm     90% 0.00 in
10:40 48.4 °F 45.6 °F 30.09 in Calm     90% 0.00 in
10:45 49.0 °F 46.2 °F 30.09 in Calm     90% 0.00 in
10:50 49.6 °F 46.5 °F 30.08 in Calm     89% 0.00 in
10:55 50.1 °F 46.7 °F 30.08 in Calm     88% 0.00 in
11:00 50.5 °F 45.5 °F 30.07 in Calm     83% 0.00 in
11:05 50.9 °F 46.6 °F 30.07 in Calm     85% 0.00 in
11:10 51.3 °F 46.6 °F 30.07 in SSE 1.1 mph 1.1 mph 84% 0.00 in
11:15 51.6 °F 46.0 °F 30.07 in ENE 1.1 mph 1.1 mph 81% 0.00 in
11:20 51.9 °F 46.6 °F 30.07 in Calm     82% 0.00 in
11:25 52.2 °F 45.9 °F 30.07 in East 1.1 mph 1.1 mph 79% 0.00 in
11:30 52.4 °F 46.4 °F 30.07 in NNW 1.1 mph 1.1 mph 80% 0.00 in
11:35 53.2 °F 46.5 °F 30.07 in Calm     78% 0.00 in
11:38 53.3 °F 45.9 °F 30.07 in SSW 2.3 mph 2.3 mph 76% 0.00 in
11:43 52.9 °F 44.5 °F 30.08 in SSE 1.1 mph 1.1 mph 73% 0.00 in
11:49 52.7 °F 44.3 °F 30.08 in SW 1.1 mph 1.1 mph 73% 0.00 in
11:54 52.5 °F 44.8 °F 30.08 in SSW 2.3 mph 2.3 mph 75% 0.00 in
11:59 52.6 °F 44.9 °F 30.08 in NNE 1.1 mph 1.1 mph 75% 0.00 in
12:04 52.6 °F 43.8 °F 30.08 in WNW 2.3 mph 2.3 mph 72% 0.00 in
12:09 53.1 °F 45.0 °F 30.08 in SSE 3.5 mph 3.5 mph 74% 0.00 in
12:14 54.1 °F 45.6 °F 30.08 in NW 3.5 mph 3.5 mph 73% 0.00 in
12:19 54.3 °F 44.3 °F 30.08 in NNE 2.3 mph 2.3 mph 69% 0.00 in
12:24 54.0 °F 44.1 °F 30.08 in WNW 2.3 mph 2.3 mph 69% 0.00 in
12:29 53.7 °F 44.1 °F 30.08 in SSW 1.1 mph 1.1 mph 70% 0.00 in
12:34 53.9 °F 44.7 °F 30.08 in South 1.1 mph 1.1 mph 71% 0.00 in
12:39 54.5 °F 45.7 °F 30.08 in NW 3.5 mph 3.5 mph 72% 0.00 in
12:44 54.3 °F 44.7 °F 30.08 in WSW 2.3 mph 2.3 mph 70% 0.00 in
12:49 53.8 °F 44.2 °F 30.09 in East 5.8 mph 5.8 mph 70% 0.00 in
12:54 53.2 °F 43.7 °F 30.08 in SW 3.5 mph 3.5 mph 70% 0.00 in
12:59 53.1 °F 43.2 °F 30.08 in ENE 3.5 mph 3.5 mph 69% 0.00 in
13:04 52.9 °F 44.1 °F 30.09 in SSE 1.1 mph 1.1 mph 72% 0.00 in
13:09 52.8 °F 44.0 °F 30.08 in WSW 1.1 mph 1.1 mph 72% 0.00 in
13:14 52.8 °F 43.3 °F 30.08 in South 2.3 mph 2.3 mph 70% 0.00 in
13:19 52.6 °F 43.5 °F 30.08 in NNE 1.1 mph   71% 0.00 in
13:24 52.8 °F 43.7 °F 30.08 in NNW 3.5 mph 3.5 mph 71% 0.00 in
13:29 52.8 °F 43.3 °F 30.07 in NNW 3.5 mph 3.5 mph 70% 0.00 in
13:34 52.8 °F 43.7 °F 30.07 in West 3.5 mph 3.5 mph 71% 0.00 in
13:39 53.2 °F 44.0 °F 30.07 in NNW 4.6 mph 4.6 mph 71% 0.00 in
13:44 53.4 °F 43.9 °F 30.07 in NW 1.1 mph 1.1 mph 70% 0.00 in
13:49 53.8 °F 44.2 °F 30.07 in North 3.5 mph 3.5 mph 70% 0.00 in
13:54 53.7 °F 43.8 °F 30.07 in West 1.0 mph 1.0 mph 69% 0.00 in
13:59 53.8 °F 43.9 °F 30.06 in NNW 2.0 mph 2.0 mph 69% 0.00 in
14:04 53.7 °F 43.4 °F 30.06 in SE 2.3 mph 2.3 mph 68% 0.00 in
14:09 53.7 °F 44.5 °F 30.06 in NNE 2.0 mph 2.0 mph 71% 0.00 in
14:14 53.7 °F 44.1 °F 30.06 in South 1.1 mph   70% 0.00 in
14:19 53.5 °F 44.3 °F 30.07 in North 1.1 mph 1.1 mph 71% 0.00 in
14:24 53.5 °F 44.7 °F 30.06 in NNE 3.5 mph 3.5 mph 72% 0.00 in
14:29 53.4 °F 44.2 °F 30.06 in West 1.1 mph 1.1 mph 71% 0.00 in
14:34 53.5 °F 44.3 °F 30.06 in NNW 2.3 mph 2.3 mph 71% 0.00 in
14:39 53.6 °F 44.0 °F 30.06 in WNW 2.3 mph 2.3 mph 70% 0.00 in
14:44 53.7 °F 44.1 °F 30.06 in West 1.1 mph 1.1 mph 70% 0.00 in
14:49 53.6 °F 44.0 °F 30.07 in West 2.3 mph 2.3 mph 70% 0.00 in
14:54 53.7 °F 44.1 °F 30.07 in East 1.0 mph 1.0 mph 70% 0.00 in
14:59 53.6 °F 44.0 °F 30.07 in WNW 3.0 mph 3.0 mph 70% 0.00 in
15:04 53.4 °F 43.5 °F 30.08 in West 3.5 mph 3.5 mph 69% 0.00 in
15:09 53.4 °F 43.9 °F 30.08 in SSW 2.3 mph 2.3 mph 70% 0.00 in
15:14 53.4 °F 43.9 °F 30.08 in NW 2.3 mph 2.3 mph 70% 0.00 in
15:19 53.4 °F 43.1 °F 30.08 in WNW 2.3 mph 2.3 mph 68% 0.00 in
15:24 53.5 °F 43.6 °F 30.08 in NNE 3.0 mph 3.0 mph 69% 0.00 in
15:29 53.9 °F 44.0 °F 30.08 in North 1.1 mph 1.1 mph 69% 0.00 in
15:34 54.1 °F 43.8 °F 30.09 in WNW 3.5 mph 3.5 mph 68% 0.00 in
15:39 53.9 °F 43.6 °F 30.09 in NNW 3.5 mph 3.5 mph 68% 0.00 in
15:44 53.9 °F 44.0 °F 30.09 in Calm   0.5 mph 69% 0.00 in
15:49 53.8 °F 43.5 °F 30.09 in NW 4.0 mph 4.0 mph 68% 0.00 in
15:54 53.6 °F 43.7 °F 30.09 in NNE 3.5 mph 3.5 mph 69% 0.00 in
15:59 53.9 °F 43.6 °F 30.09 in NNW 3.5 mph 3.5 mph 68% 0.00 in
16:04 54.6 °F 44.6 °F 30.09 in NE 1.1 mph 1.1 mph 69% 0.00 in
16:09 55.1 °F 44.3 °F 30.09 in NE 3.5 mph 3.5 mph 67% 0.00 in
16:14 54.6 °F 43.9 °F 30.09 in ENE 3.5 mph 3.5 mph 67% 0.00 in
16:19 54.6 °F 44.6 °F 30.09 in ENE 3.5 mph 3.5 mph 69% 0.00 in
16:24 54.8 °F 44.0 °F 30.09 in NNE 2.3 mph 2.3 mph 67% 0.00 in
16:29 55.0 °F 43.8 °F 30.09 in ENE 3.5 mph 3.5 mph 66% 0.00 in
16:34 55.0 °F 44.6 °F 30.09 in East 2.3 mph 2.3 mph 68% 0.00 in
16:39 54.6 °F 44.2 °F 30.09 in East 5.0 mph 5.0 mph 68% 0.00 in
16:44 54.0 °F 43.7 °F 30.09 in NE 3.5 mph 3.5 mph 68% 0.00 in
16:49 53.3 °F 43.4 °F 30.09 in ENE 3.5 mph 3.5 mph 69% 0.00 in
16:54 52.9 °F 43.7 °F 30.09 in East 1.1 mph 1.1 mph 71% 0.00 in
16:59 52.8 °F 43.7 °F 30.09 in Calm     71% 0.00 in
17:04 52.6 °F 43.5 °F 30.09 in East 2.3 mph 2.3 mph 71% 0.00 in
17:09 52.3 °F 43.5 °F 30.08 in ENE 2.3 mph 2.3 mph 72% 0.00 in
17:14 51.9 °F 43.2 °F 30.08 in ENE 2.3 mph 2.3 mph 72% 0.00 in
17:19 51.5 °F 43.1 °F 30.08 in ENE 3.5 mph 3.5 mph 73% 0.00 in
17:25 51.2 °F 42.8 °F 30.08 in East 1.1 mph 1.1 mph 73% 0.00 in
17:30 50.9 °F 42.9 °F 30.08 in East 1.1 mph   74% 0.00 in
17:35 50.5 °F 42.9 °F 30.08 in Calm     75% 0.00 in
17:40 50.1 °F 42.5 °F 30.07 in Calm     75% 0.00 in
17:45 49.7 °F 42.4 °F 30.07 in Calm     76% 0.00 in
17:50 49.3 °F 42.1 °F 30.07 in Calm     76% 0.00 in
17:55 48.9 °F 42.3 °F 30.07 in Calm     78% 0.00 in
18:00 48.5 °F 42.0 °F 30.07 in Calm     78% 0.00 in
18:05 48.1 °F 41.9 °F 30.08 in Calm     79% 0.00 in
18:10 47.7 °F 41.8 °F 30.08 in Calm     80% 0.00 in
18:15 47.3 °F 41.4 °F 30.08 in Calm     80% 0.00 in
18:20 46.8 °F 41.3 °F 30.08 in Calm     81% 0.00 in
18:25 46.5 °F 41.6 °F 30.08 in Calm     83% 0.00 in
18:30 46.5 °F 41.6 °F 30.09 in Calm     83% 0.00 in
18:35 46.2 °F 41.3 °F 30.09 in Calm     83% 0.00 in
18:40 46.0 °F 41.7 °F 30.09 in Calm     85% 0.00 in
18:45 45.7 °F 41.1 °F 30.10 in Calm     84% 0.00 in
18:50 45.4 °F 41.2 °F 30.09 in Calm     85% 0.00 in
18:55 45.1 °F 41.2 °F 30.10 in Calm     86% 0.00 in
19:00 44.7 °F 40.8 °F 30.10 in Calm     86% 0.00 in
19:05 44.5 °F 40.9 °F 30.11 in Calm     87% 0.00 in
19:10 44.2 °F 41.2 °F 30.11 in Calm     89% 0.00 in
19:15 44.1 °F 41.1 °F 30.10 in Calm     89% 0.00 in
19:20 43.8 °F 40.8 °F 30.11 in Calm     89% 0.00 in
19:25 43.6 °F 40.9 °F 30.11 in Calm     90% 0.00 in
19:30 43.6 °F 41.1 °F 30.11 in Calm     91% 0.00 in
19:35 43.5 °F 40.8 °F 30.10 in Calm     90% 0.00 in
19:40 43.3 °F 40.8 °F 30.10 in Calm     91% 0.00 in
19:45 43.0 °F 40.3 °F 30.10 in Calm     90% 0.00 in
19:46 42.9 °F 40.2 °F 30.10 in Calm     90% 0.00 in
19:51 42.6 °F 39.9 °F 30.10 in Calm     90% 0.00 in
19:56 42.3 °F 39.9 °F 30.10 in Calm     91% 0.00 in
20:01 42.1 °F 39.7 °F 30.10 in Calm     91% 0.00 in
20:06 42.1 °F 39.9 °F 30.10 in Calm     92% 0.00 in
20:11 41.9 °F 39.5 °F 30.11 in Calm     91% 0.00 in
20:16 41.7 °F 39.3 °F 30.11 in Calm     91% 0.00 in
20:21 41.5 °F 39.3 °F 30.11 in Calm     92% 0.00 in
20:26 41.4 °F 39.3 °F 30.11 in Calm     92% 0.00 in
20:31 41.3 °F 39.2 °F 30.11 in Calm     92% 0.00 in
20:36 41.1 °F 39.0 °F 30.11 in Calm     92% 0.00 in
20:41 40.8 °F 38.7 °F 30.11 in Calm     92% 0.00 in
20:46 40.6 °F 38.5 °F 30.11 in Calm     92% 0.00 in
20:51 40.3 °F 38.2 °F 30.11 in Calm     92% 0.00 in
20:56 40.1 °F 38.0 °F 30.11 in Calm     92% 0.00 in
21:00 39.9 °F 37.8 °F 30.10 in Calm     92% 0.00 in
21:01 39.9 °F 37.8 °F 30.10 in Calm     92% 0.00 in
21:06 39.6 °F 37.5 °F 30.10 in Calm     92% 0.00 in
21:11 39.5 °F 37.6 °F 30.10 in Calm     93% 0.00 in
21:16 39.4 °F 37.5 °F 30.09 in Calm     93% 0.00 in
21:21 39.4 °F 37.5 °F 30.09 in Calm     93% 0.00 in
21:26 39.3 °F 37.4 °F 30.09 in Calm     93% 0.00 in
21:31 39.2 °F 37.3 °F 30.09 in Calm     93% 0.00 in
21:36 39.1 °F 37.2 °F 30.09 in Calm     93% 0.00 in
21:41 39.0 °F 37.1 °F 30.09 in Calm     93% 0.00 in
21:46 39.1 °F 37.5 °F 30.09 in Calm     94% 0.00 in
21:51 39.2 °F 37.6 °F 30.09 in Calm     94% 0.00 in
21:56 39.1 °F 37.5 °F 30.09 in Calm     94% 0.00 in
22:01 39.1 °F 37.5 °F 30.09 in Calm     94% 0.00 in
22:07 39.1 °F 37.5 °F 30.09 in Calm     94% 0.00 in
22:12 39.0 °F 37.4 °F 30.09 in Calm     94% 0.00 in
22:17 39.0 °F 37.4 °F 30.09 in Calm     94% 0.00 in
22:22 39.0 °F 37.4 °F 30.09 in Calm     94% 0.00 in
22:27 39.1 °F 37.8 °F 30.09 in Calm     95% 0.00 in
22:32 39.4 °F 38.1 °F 30.09 in Calm     95% 0.00 in
22:37 39.8 °F 38.8 °F 30.09 in Calm     96% 0.00 in
22:42 40.1 °F 39.1 °F 30.09 in Calm     96% 0.00 in
22:47 40.4 °F 39.4 °F 30.09 in Calm     96% 0.00 in
22:52 40.4 °F 39.1 °F 30.09 in Calm     95% 0.00 in
22:57 40.4 °F 39.1 °F 30.09 in Calm     95% 0.00 in
23:02 40.5 °F 39.2 °F 30.09 in Calm     95% 0.00 in
23:07 40.5 °F 39.2 °F 30.09 in Calm     95% 0.00 in
23:12 40.4 °F 39.1 °F 30.09 in Calm     95% 0.00 in
23:17 40.3 °F 39.0 °F 30.09 in Calm     95% 0.00 in
23:22 40.1 °F 38.8 °F 30.09 in Calm     95% 0.00 in
23:27 40.0 °F 38.4 °F 30.09 in Calm     94% 0.00 in
23:32 39.9 °F 38.6 °F 30.09 in Calm     95% 0.00 in
23:37 39.7 °F 38.1 °F 30.08 in Calm     94% 0.00 in
23:42 39.7 °F 38.4 °F 30.09 in Calm     95% 0.00 in
23:47 39.9 °F 38.6 °F 30.09 in Calm     95% 0.00 in
23:52 40.0 °F 38.7 °F 30.09 in Calm     95% 0.00 in
23:57 40.2 °F 38.9 °F 30.10 in Calm     95% 0.00 in
Compliments of Weather Underground